Time;durP1;ratioP1;P1;durP2;ratioP2;P2;SDS_P1;SDS_P2;PMS_P1;PMS_P2;Temp;Humidity;BMP_temperature;BMP_pressure;BME280_temperature;BME280_humidity;BME280_pressure;Samples;Min_cycle;Max_cycle;Signal;HPM_P1;HPM_P2
2022/12/02 00:00:25;;;;;;;32.17;18.47;;;7.60;99.90;;;;;;5050503;28;20494;-69
2022/12/02 00:02:53;;;;;;;33.70;18.00;;;7.70;99.90;;;;;;5052261;28;20423;-69
2022/12/02 00:05:31;;;;;;;37.77;20.10;;;7.70;99.90;;;;;;5051701;28;20439;-69
2022/12/02 00:07:59;;;;;;;31.30;18.70;;;7.70;99.90;;;;;;5051996;28;20938;-69
2022/12/02 00:10:29;;;;;;;31.00;18.33;;;7.60;99.90;;;;;;5050531;28;20422;-69
2022/12/02 00:13:19;;;;;;;37.73;20.07;;;7.70;99.90;;;;;;5052192;28;20416;-69
2022/12/02 00:15:48;;;;;;;34.83;19.40;;;7.70;99.90;;;;;;5051836;28;20443;-69
2022/12/02 00:21:37;;;;;;;33.90;18.27;;;7.50;99.90;;;;;;5339994;22;20470;-72
2022/12/02 00:24:03;;;;;;;31.27;19.10;;;7.50;99.90;;;;;;5031772;28;20451;-70
2022/12/02 00:26:29;;;;;;;34.70;21.07;;;7.50;99.90;;;;;;5032004;28;20192;-70
2022/12/02 00:28:54;;;;;;;37.77;20.17;;;7.50;99.90;;;;;;5030377;28;20397;-70
2022/12/02 00:31:20;;;;;;;35.23;20.23;;;7.40;99.90;;;;;;5031502;28;20230;-70
2022/12/02 00:33:46;;;;;;;37.33;20.27;;;7.40;99.90;;;;;;5030676;28;20184;-70
2022/12/02 00:36:11;;;;;;;34.50;20.90;;;7.50;99.90;;;;;;5031343;28;20181;-71
2022/12/02 00:38:37;;;;;;;33.97;20.10;;;7.60;99.90;;;;;;5031901;28;20640;-70
2022/12/02 00:41:03;;;;;;;34.17;20.80;;;7.60;99.90;;;;;;5031459;28;20222;-71
2022/12/02 00:46:31;;;;;;;37.50;19.40;;;7.70;99.90;;;;;;5032337;28;20434;-71
2022/12/02 00:49:04;;;;;;;37.90;20.67;;;7.60;99.90;;;;;;5035311;28;20414;-71
2022/12/02 00:51:30;;;;;;;40.67;20.57;;;7.60;99.90;;;;;;5032349;28;20466;-71
2022/12/02 00:53:56;;;;;;;42.40;20.87;;;7.60;99.90;;;;;;5034115;28;20443;-71
2022/12/02 00:56:21;;;;;;;34.60;18.97;;;7.60;99.90;;;;;;5034316;28;20182;-71
2022/12/02 00:58:47;;;;;;;37.10;20.17;;;7.60;99.90;;;;;;5035383;28;20622;-71
2022/12/02 01:01:13;;;;;;;36.43;19.50;;;7.60;99.90;;;;;;5034684;28;20182;-71
2022/12/02 01:03:39;;;;;;;34.23;19.40;;;7.40;99.90;;;;;;5034309;28;20296;-75
2022/12/02 01:06:04;;;;;;;36.83;20.00;;;7.40;99.90;;;;;;5034250;28;20217;-76
2022/12/02 01:08:30;;;;;;;32.57;19.43;;;7.50;99.90;;;;;;5029747;28;20279;-72
2022/12/02 01:10:57;;;;;;;35.77;19.77;;;7.50;99.90;;;;;;5034734;28;20235;-73
2022/12/02 01:13:24;;;;;;;37.23;21.07;;;7.50;99.90;;;;;;5033982;28;20399;-72
2022/12/02 01:15:51;;;;;;;33.57;18.33;;;7.60;99.90;;;;;;5034634;28;20777;-72
2022/12/02 01:18:17;;;;;;;36.67;19.87;;;7.70;99.90;;;;;;5033828;28;20417;-72
2022/12/02 01:20:45;;;;;;;36.20;21.30;;;7.80;99.90;;;;;;5033285;28;20474;-73
2022/12/02 01:23:11;;;;;;;36.97;20.40;;;7.50;99.90;;;;;;5031804;28;20558;-72
2022/12/02 01:25:37;;;;;;;31.73;19.43;;;7.40;99.90;;;;;;5031125;28;20590;-73
2022/12/02 01:28:03;;;;;;;33.50;18.80;;;7.50;99.90;;;;;;5031604;28;20981;-72
2022/12/02 01:30:29;;;;;;;38.23;19.57;;;7.50;99.90;;;;;;5033163;28;20590;-73
2022/12/02 01:32:54;;;;;;;34.83;18.80;;;7.50;99.90;;;;;;5032664;28;20425;-73
2022/12/02 01:35:20;;;;;;;32.13;18.60;;;7.60;99.90;;;;;;5032717;28;20405;-73
2022/12/02 01:37:46;;;;;;;36.67;19.13;;;7.60;99.90;;;;;;5033762;28;20535;-73
2022/12/02 01:40:13;;;;;;;35.33;18.40;;;7.50;99.90;;;;;;5034413;28;20387;-73
2022/12/02 01:42:39;;;;;;;37.40;19.17;;;7.50;99.90;;;;;;5032620;28;20254;-73
2022/12/02 01:45:07;;;;;;;32.47;19.70;;;7.50;99.90;;;;;;5033151;28;20462;-73
2022/12/02 01:47:34;;;;;;;31.23;18.80;;;7.50;99.90;;;;;;5032219;28;20953;-73
2022/12/02 01:50:00;;;;;;;35.37;19.27;;;7.50;99.90;;;;;;5033502;28;20435;-73
2022/12/02 01:52:25;;;;;;;36.17;19.67;;;7.50;99.90;;;;;;5032379;28;20455;-73
2022/12/02 01:54:51;;;;;;;37.43;19.87;;;7.50;99.90;;;;;;5033410;28;20550;-74
2022/12/02 01:57:23;;;;;;;36.47;18.20;;;7.60;99.90;;;;;;5032632;28;20274;-73
2022/12/02 01:59:48;;;;;;;31.77;18.87;;;7.60;99.90;;;;;;5033150;28;20435;-73
2022/12/02 02:02:35;;;;;;;36.23;19.17;;;7.60;99.90;;;;;;5033052;28;20780;-73
2022/12/02 02:05:15;;;;;;;35.37;18.93;;;7.60;99.90;;;;;;5033214;28;20201;-73
2022/12/02 02:07:45;;;;;;;33.90;20.40;;;7.50;99.90;;;;;;5033234;28;20401;-73
2022/12/02 02:10:11;;;;;;;44.70;21.93;;;7.50;99.90;;;;;;5033683;28;20416;-73
2022/12/02 02:12:37;;;;;;;37.90;20.83;;;7.50;99.90;;;;;;5031885;28;20460;-73
2022/12/02 02:15:05;;;;;;;39.20;20.30;;;7.50;99.90;;;;;;5032819;28;20904;-73
2022/12/02 02:17:31;;;;;;;34.73;19.50;;;7.50;99.90;;;;;;5032669;28;20886;-73
2022/12/02 02:19:57;;;;;;;37.67;19.97;;;7.50;99.90;;;;;;5032665;28;20426;-73
2022/12/02 02:22:28;;;;;;;39.27;20.77;;;7.60;99.90;;;;;;5031297;28;20469;-73
2022/12/02 02:24:54;;;;;;;38.83;21.50;;;7.60;99.90;;;;;;5032613;28;20234;-73
2022/12/02 02:27:19;;;;;;;32.03;19.40;;;7.50;99.90;;;;;;5032700;28;20508;-73
2022/12/02 02:29:45;;;;;;;33.50;19.67;;;7.60;99.90;;;;;;5032147;28;20636;-73
2022/12/02 02:32:11;;;;;;;37.43;19.80;;;7.60;99.90;;;;;;5032454;28;20267;-73
2022/12/02 02:34:37;;;;;;;37.33;20.20;;;7.60;99.90;;;;;;5032447;28;20183;-73
2022/12/02 02:37:03;;;;;;;34.80;20.40;;;7.60;99.90;;;;;;5030823;28;20836;-73
2022/12/02 02:39:29;;;;;;;34.13;21.23;;;7.60;99.90;;;;;;5031531;28;20434;-73
2022/12/02 02:41:56;;;;;;;37.17;19.30;;;7.60;99.90;;;;;;5031852;28;20743;-73
2022/12/02 02:44:23;;;;;;;38.53;21.40;;;7.70;99.90;;;;;;5031301;28;20441;-73
2022/12/02 02:46:48;;;;;;;39.57;20.90;;;7.60;99.90;;;;;;5032168;28;20535;-73
2022/12/02 02:49:14;;;;;;;36.97;19.80;;;7.50;99.90;;;;;;5031645;28;20502;-73
2022/12/02 02:51:40;;;;;;;36.20;19.17;;;7.60;99.90;;;;;;5031217;28;20215;-74
2022/12/02 02:54:06;;;;;;;40.90;19.03;;;7.60;99.90;;;;;;5032136;28;21312;-74
2022/12/02 02:56:32;;;;;;;37.90;20.60;;;7.60;99.90;;;;;;5032110;28;20469;-73
2022/12/02 02:58:57;;;;;;;36.33;19.00;;;7.50;99.90;;;;;;5031758;28;20185;-73
2022/12/02 03:01:32;;;;;;;38.03;19.40;;;7.60;99.90;;;;;;5031533;28;20765;-73
2022/12/02 03:04:01;;;;;;;33.67;19.70;;;7.60;99.90;;;;;;5032928;28;20284;-73
2022/12/02 03:06:31;;;;;;;35.60;19.50;;;7.60;99.90;;;;;;5031220;28;20468;-74
2022/12/02 03:08:58;;;;;;;35.87;19.40;;;7.70;99.90;;;;;;5031645;28;20432;-73
2022/12/02 03:11:26;;;;;;;35.77;18.53;;;7.60;99.90;;;;;;5030643;28;20415;-73
2022/12/02 03:13:52;;;;;;;34.93;19.20;;;7.60;99.90;;;;;;5031988;28;20424;-73
2022/12/02 03:16:20;;;;;;;37.37;19.33;;;7.60;99.90;;;;;;5031613;28;20439;-73
2022/12/02 03:18:47;;;;;;;35.10;19.80;;;7.50;99.90;;;;;;5032044;28;20499;-73
2022/12/02 03:21:15;;;;;;;37.60;19.80;;;7.50;99.90;;;;;;5032471;28;20851;-73
2022/12/02 03:23:41;;;;;;;38.00;20.20;;;7.50;99.90;;;;;;5030897;28;20464;-73
2022/12/02 03:26:07;;;;;;;39.47;19.50;;;7.60;99.90;;;;;;5030500;28;20436;-73
2022/12/02 03:28:33;;;;;;;37.40;18.87;;;7.50;99.90;;;;;;5036935;28;20423;-73
2022/12/02 03:30:59;;;;;;;34.90;19.07;;;7.50;99.90;;;;;;5037195;28;20441;-73
2022/12/02 03:33:26;;;;;;;35.50;19.33;;;7.50;99.90;;;;;;5030305;28;20428;-73
2022/12/02 03:35:52;;;;;;;38.07;19.50;;;7.50;99.90;;;;;;5031691;28;20450;-74
2022/12/02 03:38:17;;;;;;;40.77;20.23;;;7.40;99.90;;;;;;5030537;28;20431;-73
2022/12/02 03:40:44;;;;;;;37.90;19.63;;;7.50;99.90;;;;;;5031161;28;20172;-73
2022/12/02 03:43:09;;;;;;;35.77;18.63;;;7.50;99.90;;;;;;5031420;28;20519;-74
2022/12/02 03:45:35;;;;;;;38.93;20.20;;;7.50;99.90;;;;;;5030701;28;20442;-74
2022/12/02 03:48:03;;;;;;;36.63;20.23;;;7.50;99.90;;;;;;5031521;28;20189;-73
2022/12/02 03:50:29;;;;;;;40.43;20.00;;;7.40;99.90;;;;;;5030050;28;20208;-73
2022/12/02 03:52:55;;;;;;;36.50;19.80;;;7.40;99.90;;;;;;5030830;28;20811;-73
2022/12/02 03:55:21;;;;;;;38.07;20.80;;;7.40;99.90;;;;;;5031228;28;20220;-73
2022/12/02 03:57:47;;;;;;;43.10;19.40;;;7.40;99.90;;;;;;5030856;28;20911;-73
2022/12/02 04:00:13;;;;;;;35.60;18.40;;;7.40;99.90;;;;;;5031148;28;20431;-73
2022/12/02 04:02:39;;;;;;;34.30;18.80;;;7.40;99.90;;;;;;5029062;28;20584;-73
2022/12/02 04:05:05;;;;;;;35.13;20.50;;;7.50;99.90;;;;;;5029232;28;20467;-73
2022/12/02 04:07:31;;;;;;;36.13;19.60;;;7.30;99.90;;;;;;5011490;28;20197;-73
2022/12/02 04:09:57;;;;;;;41.50;20.10;;;7.20;99.90;;;;;;5030421;28;20430;-73
2022/12/02 04:12:22;;;;;;;35.70;18.90;;;7.20;99.90;;;;;;5032081;28;20226;-74
2022/12/02 04:14:48;;;;;;;46.13;21.73;;;7.20;99.90;;;;;;5029154;28;20255;-73
2022/12/02 04:17:14;;;;;;;40.20;20.83;;;7.20;99.90;;;;;;5031855;28;20180;-73
2022/12/02 04:19:39;;;;;;;44.10;21.70;;;7.10;99.90;;;;;;5028589;28;20326;-73
2022/12/02 04:22:05;;;;;;;40.03;19.47;;;7.10;99.90;;;;;;5033702;28;20219;-73
2022/12/02 04:24:31;;;;;;;42.93;19.73;;;7.20;99.90;;;;;;5034697;28;20197;-73
2022/12/02 04:26:56;;;;;;;41.27;19.70;;;7.20;99.90;;;;;;5035522;28;20176;-73
2022/12/02 04:29:22;;;;;;;43.43;21.83;;;7.20;99.90;;;;;;5035212;28;20529;-73
2022/12/02 04:31:48;;;;;;;44.60;22.00;;;7.30;99.90;;;;;;5034366;28;20184;-73
2022/12/02 04:34:13;;;;;;;41.73;21.50;;;7.20;99.90;;;;;;5035557;28;20251;-73
2022/12/02 04:36:39;;;;;;;42.57;20.73;;;7.20;99.90;;;;;;5034493;28;20177;-73
2022/12/02 04:39:05;;;;;;;46.87;22.17;;;7.10;99.90;;;;;;5035610;28;20177;-74
2022/12/02 04:41:31;;;;;;;48.30;20.03;;;7.10;99.90;;;;;;5034701;28;20208;-72
2022/12/02 04:43:56;;;;;;;43.50;20.40;;;7.20;99.90;;;;;;5035165;28;20253;-73
2022/12/02 04:46:22;;;;;;;42.37;23.50;;;7.30;99.90;;;;;;5034399;28;20213;-72
2022/12/02 04:48:48;;;;;;;46.17;21.53;;;7.30;99.90;;;;;;5034463;28;20180;-72
2022/12/02 04:51:13;;;;;;;49.37;21.13;;;7.30;99.90;;;;;;5035251;28;20181;-72
2022/12/02 04:53:39;;;;;;;45.40;21.30;;;7.30;99.90;;;;;;5034319;28;20180;-72
2022/12/02 04:56:05;;;;;;;48.77;20.43;;;7.20;99.90;;;;;;5035067;28;20171;-72
2022/12/02 04:58:30;;;;;;;44.33;22.00;;;7.30;99.90;;;;;;5034332;28;20180;-72
2022/12/02 05:00:56;;;;;;;40.83;22.10;;;7.20;99.90;;;;;;5035027;28;20386;-72
2022/12/02 05:03:22;;;;;;;42.10;20.07;;;7.30;99.90;;;;;;5035041;28;20177;-72
2022/12/02 05:05:48;;;;;;;39.27;18.93;;;7.20;99.90;;;;;;5032721;28;20243;-72
2022/12/02 05:08:14;;;;;;;44.00;19.70;;;7.20;99.90;;;;;;5017186;28;20181;-71
2022/12/02 05:10:39;;;;;;;53.50;21.30;;;7.30;99.90;;;;;;5032838;28;20415;-72
2022/12/02 05:13:05;;;;;;;49.97;19.73;;;7.30;99.90;;;;;;5034876;28;20260;-72
2022/12/02 05:15:31;;;;;;;45.50;19.47;;;7.30;99.90;;;;;;5033284;28;20214;-72
2022/12/02 05:17:57;;;;;;;45.37;20.23;;;7.20;99.90;;;;;;5034945;28;20187;-72
2022/12/02 05:20:22;;;;;;;49.57;22.37;;;7.20;99.90;;;;;;5034535;28;20176;-71
2022/12/02 05:22:48;;;;;;;48.77;22.43;;;7.30;99.90;;;;;;5033410;28;20645;-71
2022/12/02 05:25:14;;;;;;;41.27;22.97;;;7.10;99.90;;;;;;5034498;28;20213;-71
2022/12/02 05:27:39;;;;;;;50.70;22.03;;;7.20;99.90;;;;;;5033831;28;20253;-72
2022/12/02 05:30:06;;;;;;;38.10;19.37;;;7.20;99.90;;;;;;5034567;28;20177;-72
2022/12/02 05:32:32;;;;;;;52.90;20.53;;;7.10;99.90;;;;;;5033532;28;20178;-71
2022/12/02 05:34:58;;;;;;;50.10;21.87;;;7.20;99.90;;;;;;5034696;28;20771;-71
2022/12/02 05:37:23;;;;;;;40.57;19.67;;;7.30;99.90;;;;;;5034803;28;20265;-72
2022/12/02 05:39:49;;;;;;;45.00;19.43;;;7.20;99.90;;;;;;5033430;28;20183;-71
2022/12/02 05:42:15;;;;;;;46.20;20.80;;;7.30;99.90;;;;;;5034491;28;20173;-72
2022/12/02 05:44:42;;;;;;;42.13;18.83;;;7.20;99.90;;;;;;5033005;28;20470;-72
2022/12/02 05:47:17;;;;;;;43.03;19.80;;;7.20;99.90;;;;;;5033457;28;20273;-71
2022/12/02 05:49:44;;;;;;;39.20;18.20;;;7.20;99.90;;;;;;5033743;28;20403;-71
2022/12/02 05:52:22;;;;;;;39.40;19.03;;;7.20;99.90;;;;;;5034194;28;20422;-71
2022/12/02 05:54:51;;;;;;;41.07;19.27;;;7.20;99.90;;;;;;5033847;28;20404;-71
2022/12/02 05:57:22;;;;;;;44.43;20.50;;;7.20;99.90;;;;;;5034377;28;20419;-71
2022/12/02 05:59:48;;;;;;;38.03;19.33;;;7.20;99.90;;;;;;5032650;28;20404;-71
2022/12/02 06:02:37;;;;;;;39.27;17.87;;;7.10;99.90;;;;;;5034352;28;20422;-72
2022/12/02 06:05:14;;;;;;;37.37;16.80;;;7.10;99.90;;;;;;5034422;28;20447;-72
2022/12/02 06:07:42;;;;;;;36.40;18.10;;;7.10;99.90;;;;;;5033711;28;20405;-73
2022/12/02 06:10:21;;;;;;;35.40;17.40;;;7.10;99.90;;;;;;5034044;28;20401;-75
2022/12/02 06:12:48;;;;;;;46.43;21.03;;;7.20;99.90;;;;;;5033626;28;20398;-75
2022/12/02 06:15:14;;;;;;;55.10;24.00;;;7.40;99.90;;;;;;5030975;28;20517;-74
2022/12/02 06:17:40;;;;;;;48.70;25.00;;;7.60;99.90;;;;;;5029904;28;20432;-74
2022/12/02 06:20:13;;;;;;;46.80;22.63;;;7.80;99.90;;;;;;5031645;28;20463;-74
2022/12/02 06:22:39;;;;;;;36.13;18.90;;;7.80;99.90;;;;;;5033622;28;20475;-74
2022/12/02 06:25:24;;;;;;;38.20;21.27;;;8.00;99.90;;;;;;5033498;28;20468;-74
2022/12/02 06:27:53;;;;;;;49.57;21.70;;;8.10;99.90;;;;;;5033300;28;20518;-74
2022/12/02 06:30:18;;;;;;;38.90;20.30;;;8.70;99.90;;;;;;5044031;28;20766;-74
2022/12/02 06:32:53;;;;;;;42.10;22.67;;;8.30;99.90;;;;;;5031209;28;20440;-75
2022/12/02 06:35:26;;;;;;;44.60;22.20;;;8.50;99.90;;;;;;5033100;28;20185;-74
2022/12/02 06:38:01;;;;;;;40.53;22.63;;;8.70;99.90;;;;;;5031753;28;20702;-74
2022/12/02 06:40:32;;;;;;;42.20;21.13;;;8.70;99.90;;;;;;5028978;28;20429;-73
2022/12/02 06:43:00;;;;;;;44.30;24.73;;;8.90;99.90;;;;;;5029636;28;20436;-74
2022/12/02 06:45:32;;;;;;;38.97;21.37;;;8.90;99.90;;;;;;5032137;28;20944;-74
2022/12/02 06:48:09;;;;;;;43.47;20.37;;;8.90;99.90;;;;;;5039600;28;20425;-74
2022/12/02 06:50:39;;;;;;;36.23;21.93;;;8.90;99.90;;;;;;5030179;28;20440;-73
2022/12/02 06:53:39;;;;;;;35.83;19.80;;;9.00;99.90;;;;;;5031835;28;20439;-73
2022/12/02 06:56:28;;;;;;;37.40;19.33;;;9.00;99.90;;;;;;5032082;28;20444;-73
2022/12/02 06:59:03;;;;;;;38.57;24.10;;;8.90;99.90;;;;;;5027898;28;20717;-73
2022/12/02 07:01:40;;;;;;;35.77;19.73;;;9.00;99.90;;;;;;5027885;28;20518;-73
2022/12/02 07:04:09;;;;;;;34.77;19.00;;;9.00;99.90;;;;;;5028689;28;20457;-73
2022/12/02 07:06:48;;;;;;;37.97;20.40;;;9.10;99.90;;;;;;5029232;28;20444;-73
2022/12/02 07:09:41;;;;;;;40.67;20.60;;;9.20;99.90;;;;;;5029895;28;20529;-73
2022/12/02 07:12:33;;;;;;;34.60;19.87;;;9.20;99.90;;;;;;5025384;28;20436;-74
2022/12/02 07:15:08;;;;;;;33.77;19.13;;;9.20;99.90;;;;;;5027575;28;20455;-74
2022/12/02 07:17:43;;;;;;;41.33;20.87;;;9.20;99.90;;;;;;5029547;28;20444;-72
2022/12/02 07:20:09;;;;;;;36.87;18.40;;;9.20;99.90;;;;;;5026588;28;20780;-73
2022/12/02 07:22:36;;;;;;;39.70;19.40;;;;;;;;;;5016768;28;20940;-73
2022/12/02 07:25:10;;;;;;;38.50;21.57;;;9.20;99.90;;;;;;5031422;28;20483;-74
2022/12/02 07:27:41;;;;;;;33.07;18.07;;;9.30;99.90;;;;;;5030401;28;20437;-73
2022/12/02 07:30:26;;;;;;;35.53;19.90;;;9.40;99.90;;;;;;5031671;28;20435;-74
2022/12/02 07:32:52;;;;;;;37.30;21.23;;;9.40;99.90;;;;;;5042592;28;20463;-74
2022/12/02 07:35:18;;;;;;;43.13;23.73;;;9.40;99.90;;;;;;5035283;28;20465;-75
2022/12/02 07:37:44;;;;;;;38.33;23.00;;;9.40;99.90;;;;;;5031071;28;20512;-74
2022/12/02 07:40:12;;;;;;;28.33;18.10;;;9.30;99.90;;;;;;5032241;28;20413;-74
2022/12/02 07:42:38;;;;;;;32.20;18.47;;;9.20;99.90;;;;;;5035013;28;20472;-73
2022/12/02 07:45:04;;;;;;;32.50;17.57;;;9.30;99.90;;;;;;5039769;28;20508;-73
2022/12/02 07:47:31;;;;;;;27.77;17.97;;;9.20;99.90;;;;;;5047440;28;20213;-73
2022/12/02 07:49:57;;;;;;;29.30;16.77;;;9.10;99.90;;;;;;5029860;28;20444;-71
2022/12/02 07:52:23;;;;;;;32.10;17.30;;;8.80;99.90;;;;;;5031207;28;20432;-71
2022/12/02 07:54:49;;;;;;;26.53;15.73;;;8.60;99.90;;;;;;5030812;28;20429;-72
2022/12/02 07:57:15;;;;;;;29.00;17.47;;;8.60;99.90;;;;;;5036238;28;20493;-72
2022/12/02 07:59:41;;;;;;;29.57;16.67;;;8.50;99.90;;;;;;5032404;28;20450;-72
2022/12/02 08:02:07;;;;;;;31.47;17.50;;;8.50;99.90;;;;;;5034037;28;20232;-72
2022/12/02 08:04:32;;;;;;;27.07;18.33;;;8.30;99.90;;;;;;5016672;28;20456;-74
2022/12/02 08:06:58;;;;;;;27.13;17.07;;;8.30;99.90;;;;;;5034369;28;20197;-74
2022/12/02 08:09:24;;;;;;;27.03;16.40;;;8.00;99.90;;;;;;5035754;28;20177;-73
2022/12/02 08:11:49;;;;;;;26.90;15.03;;;7.90;99.90;;;;;;5033639;28;20678;-75
2022/12/02 08:14:15;;;;;;;24.43;16.20;;;7.80;99.90;;;;;;5034687;28;20262;-80
2022/12/02 08:16:41;;;;;;;26.53;15.93;;;7.70;99.90;;;;;;5033911;28;20204;-79
2022/12/02 08:19:07;;;;;;;28.70;16.70;;;7.70;99.90;;;;;;5034146;28;20480;-79
2022/12/02 08:21:33;;;;;;;26.40;18.83;;;7.60;99.90;;;;;;5023580;28;20224;-79
2022/12/02 08:23:59;;;;;;;28.70;15.80;;;7.60;99.90;;;;;;5035226;28;20463;-78
2022/12/02 08:26:25;;;;;;;29.13;15.30;;;7.50;99.90;;;;;;5034298;28;20807;-84
2022/12/02 08:28:51;;;;;;;25.17;17.80;;;7.50;99.90;;;;;;5036962;28;20525;-79
2022/12/02 08:31:16;;;;;;;26.60;15.80;;;7.50;99.90;;;;;;5033055;28;20264;-80
2022/12/02 08:33:42;;;;;;;24.53;14.63;;;7.50;99.90;;;;;;5043299;28;20176;-79
2022/12/02 08:36:08;;;;;;;23.23;14.70;;;7.50;99.90;;;;;;5036785;28;20177;-79
2022/12/02 08:38:34;;;;;;;26.30;16.80;;;7.50;99.90;;;;;;5045342;28;20199;-80
2022/12/02 08:41:00;;;;;;;23.47;15.00;;;7.40;99.90;;;;;;5049817;28;20921;-80
2022/12/02 08:43:25;;;;;;;22.77;13.70;;;7.20;99.90;;;;;;5037573;28;20410;-79
2022/12/02 08:45:51;;;;;;;25.63;14.70;;;7.00;99.90;;;;;;5023047;28;20212;-79
2022/12/02 08:48:17;;;;;;;21.60;13.60;;;7.00;99.90;;;;;;5017939;28;20239;-80
2022/12/02 08:50:43;;;;;;;24.40;14.60;;;7.00;99.90;;;;;;5034390;28;20262;-79
2022/12/02 08:53:08;;;;;;;21.70;14.60;;;7.00;99.90;;;;;;5034202;28;20442;-80
2022/12/02 08:55:34;;;;;;;22.60;13.77;;;7.00;99.90;;;;;;5034499;28;20610;-80
2022/12/02 08:58:00;;;;;;;28.53;14.90;;;7.10;99.90;;;;;;5033142;28;20266;-80
2022/12/02 09:00:25;;;;;;;20.03;13.50;;;7.10;99.90;;;;;;5033927;28;20523;-79
2022/12/02 09:02:51;;;;;;;22.73;14.20;;;7.20;99.90;;;;;;5033880;28;20180;-80
2022/12/02 09:05:17;;;;;;;21.63;13.10;;;7.20;99.90;;;;;;5016389;28;20215;-84
2022/12/02 09:07:43;;;;;;;21.80;14.57;;;7.20;99.90;;;;;;5032900;28;20183;-80
2022/12/02 09:10:09;;;;;;;23.50;15.37;;;7.10;99.90;;;;;;5034066;28;20321;-79
2022/12/02 09:12:35;;;;;;;19.37;13.13;;;7.10;99.90;;;;;;5034338;28;20433;-79
2022/12/02 09:15:01;;;;;;;19.90;14.80;;;6.90;99.90;;;;;;5032686;28;20942;-79
2022/12/02 09:17:27;;;;;;;19.33;14.13;;;6.90;99.90;;;;;;5034499;28;20192;-79
2022/12/02 09:19:52;;;;;;;18.00;13.40;;;6.90;99.90;;;;;;5032669;28;20643;-78
2022/12/02 09:22:18;;;;;;;20.87;12.97;;;6.90;99.90;;;;;;5034959;28;20227;-74
2022/12/02 09:24:44;;;;;;;21.30;14.47;;;6.90;99.90;;;;;;5033845;28;20203;-74
2022/12/02 09:27:09;;;;;;;23.10;17.57;;;6.80;99.90;;;;;;5034343;28;20180;-74
2022/12/02 09:29:35;;;;;;;21.03;14.40;;;6.90;99.90;;;;;;5033934;28;20254;-74
2022/12/02 09:32:01;;;;;;;21.17;13.70;;;7.00;99.90;;;;;;5034790;28;20192;-73
2022/12/02 09:34:26;;;;;;;21.80;14.37;;;7.00;99.90;;;;;;5034363;28;20439;-74
2022/12/02 09:36:52;;;;;;;23.87;16.63;;;7.10;99.90;;;;;;5033361;28;20183;-74
2022/12/02 09:39:18;;;;;;;21.43;14.03;;;7.10;99.90;;;;;;5034607;28;20192;-74
2022/12/02 09:41:44;;;;;;;23.87;15.23;;;7.10;99.90;;;;;;5033217;28;20221;-74
2022/12/02 09:44:12;;;;;;;22.83;14.70;;;7.00;99.90;;;;;;5033679;28;20243;-73
2022/12/02 09:46:38;;;;;;;20.80;13.80;;;7.00;99.90;;;;;;5034452;28;20194;-74
2022/12/02 09:49:04;;;;;;;23.60;13.73;;;7.00;99.90;;;;;;5033063;28;20507;-73
2022/12/02 09:51:32;;;;;;;22.67;15.20;;;7.10;99.90;;;;;;5034291;28;20188;-73
2022/12/02 09:53:57;;;;;;;17.67;13.60;;;7.00;99.90;;;;;;5030656;28;20541;-73
2022/12/02 09:56:23;;;;;;;25.73;15.47;;;7.00;99.90;;;;;;5031742;28;20526;-74
2022/12/02 09:58:52;;;;;;;23.57;16.60;;;7.00;99.90;;;;;;5026495;28;20519;-73
2022/12/02 10:01:18;;;;;;;22.10;15.10;;;7.00;99.90;;;;;;5031547;28;20273;-74
2022/12/02 10:03:46;;;;;;;20.17;15.03;;;7.00;99.90;;;;;;5030266;28;20472;-79
2022/12/02 10:06:19;;;;;;;24.83;18.90;;;7.00;99.90;;;;;;5032577;28;20431;-73
2022/12/02 10:08:45;;;;;;;24.23;17.10;;;7.00;99.90;;;;;;5032586;28;20464;-84
2022/12/02 10:11:26;;;;;;;21.17;14.43;;;7.00;99.90;;;;;;5031581;28;20446;-77
2022/12/02 10:13:52;;;;;;;25.33;15.00;;;7.00;99.90;;;;;;5031863;28;20509;-76
2022/12/02 10:16:18;;;;;;;26.87;16.43;;;6.90;99.90;;;;;;5032896;28;20938;-72
2022/12/02 10:18:45;;;;;;;26.83;16.70;;;6.90;99.90;;;;;;5031610;28;20412;-72
2022/12/02 10:21:11;;;;;;;22.47;14.80;;;6.90;99.90;;;;;;5034140;28;20227;-72
2022/12/02 10:23:58;;;;;;;26.40;16.97;;;7.00;99.90;;;;;;5033884;28;20436;-72
2022/12/02 10:26:24;;;;;;;26.60;17.33;;;7.00;99.90;;;;;;5033128;28;20216;-72
2022/12/02 10:29:04;;;;;;;25.43;15.90;;;6.90;99.90;;;;;;5032309;28;20442;-71
2022/12/02 10:31:30;;;;;;;24.43;14.80;;;7.00;99.90;;;;;;5032643;28;20417;-71
2022/12/02 10:34:06;;;;;;;23.87;16.50;;;7.00;99.90;;;;;;5040972;28;20439;-71
2022/12/02 10:36:36;;;;;;;25.37;17.27;;;7.10;99.90;;;;;;5042221;28;20418;-71
2022/12/02 10:39:32;;;;;;;26.13;17.13;;;7.00;99.90;;;;;;5046916;28;20495;-72
2022/12/02 10:42:04;;;;;;;28.00;16.47;;;7.00;99.90;;;;;;5032069;28;20431;-72
2022/12/02 10:44:31;;;;;;;28.57;17.07;;;7.00;99.90;;;;;;5032298;28;20827;-72
2022/12/02 10:47:18;;;;;;;25.67;17.27;;;7.10;99.90;;;;;;5030518;28;20450;-72
2022/12/02 10:50:05;;;;;;;25.50;16.20;;;7.00;99.90;;;;;;5032611;28;20424;-72
2022/12/02 10:52:41;;;;;;;26.43;16.93;;;7.00;99.90;;;;;;5032966;28;20534;-72
2022/12/02 10:55:09;;;;;;;28.30;17.40;;;7.00;99.90;;;;;;5013071;28;20408;-72
2022/12/02 10:57:36;;;;;;;34.17;19.33;;;7.00;99.90;;;;;;5021973;28;20757;-72
2022/12/02 11:00:14;;;;;;;31.97;18.97;;;7.00;99.90;;;;;;5031337;28;20777;-71
2022/12/02 11:02:45;;;;;;;29.30;17.50;;;7.00;99.90;;;;;;5042136;28;20780;-71
2022/12/02 11:05:31;;;;;;;33.40;19.97;;;7.00;99.90;;;;;;5030769;28;20470;-71
2022/12/02 11:08:27;;;;;;;29.27;17.07;;;7.00;99.90;;;;;;5029910;28;20484;-71
2022/12/02 11:11:25;;;;;;;28.00;18.53;;;7.00;99.90;;;;;;5028174;28;20437;-71
2022/12/02 11:13:56;;;;;;;29.10;18.10;;;7.00;99.90;;;;;;5009375;28;20896;-71
2022/12/02 11:16:28;;;;;;;30.03;18.40;;;7.00;99.90;;;;;;5031950;28;20431;-71
2022/12/02 11:19:11;;;;;;;31.77;18.27;;;7.00;99.90;;;;;;5030973;28;20441;-71
2022/12/02 11:21:39;;;;;;;28.33;17.93;;;7.10;99.90;;;;;;5030404;28;20441;-71
2022/12/02 11:24:25;;;;;;;28.80;18.43;;;7.10;99.90;;;;;;5032139;28;20471;-71
2022/12/02 11:26:59;;;;;;;31.53;16.87;;;7.00;99.90;;;;;;5032259;28;20549;-71
2022/12/02 11:29:32;;;;;;;31.17;20.60;;;7.00;99.90;;;;;;5031761;28;20418;-71
2022/12/02 11:32:24;;;;;;;32.20;17.60;;;6.90;99.90;;;;;;5029990;28;20952;-71
2022/12/02 11:34:50;;;;;;;31.20;20.47;;;7.00;99.90;;;;;;5023711;28;20446;-71
2022/12/02 11:37:25;;;;;;;26.43;17.70;;;7.00;99.90;;;;;;5031252;28;20415;-71
2022/12/02 11:39:52;;;;;;;28.33;17.17;;;7.00;99.90;;;;;;5032189;28;20180;-72
2022/12/02 11:42:29;;;;;;;27.77;16.33;;;7.10;99.90;;;;;;5031479;28;20465;-71
2022/12/02 11:45:14;;;;;;;26.97;17.17;;;7.10;99.90;;;;;;5029732;28;20469;-71
2022/12/02 11:47:41;;;;;;;28.03;18.00;;;7.10;99.90;;;;;;5029453;28;20458;-71
2022/12/02 11:50:15;;;;;;;30.03;18.70;;;7.10;99.90;;;;;;5029517;28;20484;-72
2022/12/02 11:52:50;;;;;;;30.97;17.20;;;7.10;99.90;;;;;;5027778;28;20438;-71
2022/12/02 11:55:30;;;;;;;32.23;18.70;;;7.10;99.90;;;;;;5031707;28;20501;-71
2022/12/02 11:57:57;;;;;;;34.97;19.47;;;7.10;99.90;;;;;;5026185;28;20436;-72
2022/12/02 12:00:58;;;;;;;30.53;18.80;;;7.10;99.90;;;;;;5029343;28;20936;-72
2022/12/02 12:03:24;;;;;;;31.40;19.90;;;7.10;99.90;;;;;;5031528;28;20416;-71
2022/12/02 12:06:11;;;;;;;34.73;19.57;;;7.20;99.90;;;;;;5031898;28;20415;-72
2022/12/02 12:08:41;;;;;;;32.77;21.10;;;7.30;99.90;;;;;;5029302;28;20189;-72
2022/12/02 12:11:36;;;;;;;31.83;19.00;;;7.10;99.90;;;;;;5031553;28;20408;-71
2022/12/02 12:14:03;;;;;;;30.40;17.63;;;7.20;99.90;;;;;;5013026;28;20426;-72
2022/12/02 12:16:31;;;;;;;32.63;17.87;;;7.20;99.90;;;;;;5018390;28;20423;-72
2022/12/02 12:18:58;;;;;;;31.97;19.43;;;7.20;99.90;;;;;;5029688;28;20502;-73
2022/12/02 12:21:31;;;;;;;30.97;20.03;;;7.20;99.90;;;;;;5029552;28;20517;-71
2022/12/02 12:24:15;;;;;;;31.63;18.60;;;7.20;99.90;;;;;;5029659;28;20514;-72
2022/12/02 12:26:42;;;;;;;31.47;19.80;;;7.20;99.90;;;;;;5030285;28;20915;-71
2022/12/02 12:29:07;;;;;;;30.97;19.40;;;7.10;99.90;;;;;;5032046;28;20406;-72
2022/12/02 12:31:33;;;;;;;35.60;19.10;;;7.10;99.90;;;;;;5030210;28;20408;-72
2022/12/02 12:33:59;;;;;;;31.33;19.33;;;7.00;99.90;;;;;;5030836;28;20676;-72
2022/12/02 12:36:24;;;;;;;34.40;19.60;;;7.00;99.90;;;;;;5033606;28;20215;-72
2022/12/02 12:38:50;;;;;;;37.77;20.00;;;7.00;99.90;;;;;;5030470;28;20186;-72
2022/12/02 12:41:16;;;;;;;35.30;22.47;;;7.10;99.90;;;;;;5029531;28;20177;-72
2022/12/02 12:43:42;;;;;;;35.43;21.20;;;7.10;99.90;;;;;;5023612;28;20236;-71
2022/12/02 12:46:07;;;;;;;32.23;20.10;;;7.20;99.90;;;;;;5034430;28;20189;-71
2022/12/02 12:48:33;;;;;;;32.30;20.80;;;7.20;99.90;;;;;;5035039;28;20165;-71
2022/12/02 12:50:58;;;;;;;40.37;21.90;;;7.30;99.90;;;;;;5036142;28;20189;-72
2022/12/02 12:53:24;;;;;;;39.77;22.63;;;7.20;99.90;;;;;;5034137;28;20613;-71